Time;durP1;ratioP1;P1;durP2;ratioP2;P2;SDS_P1;SDS_P2;PMS_P1;PMS_P2;Temp;Humidity;BMP_temperature;BMP_pressure;BME280_temperature;BME280_humidity;BME280_pressure;Samples;Min_cycle;Max_cycle;Signal;HPM_P1;HPM_P2
2022/03/20 00:00:22;;;;;;;17.25;15.50;;;;;;;5.88;46.96;102495.94;5029500;27;20139;-71
2022/03/20 00:02:48;;;;;;;18.80;15.45;;;;;;;5.83;47.29;102491.72;5046380;27;20036;-71
2022/03/20 00:05:13;;;;;;;17.02;15.23;;;;;;;5.89;47.05;102487.16;5046977;27;20032;-72
2022/03/20 00:07:39;;;;;;;17.00;15.07;;;;;;;5.97;47.27;102485.06;5016764;27;20082;-70
2022/03/20 00:10:05;;;;;;;23.60;15.80;;;;;;;5.90;46.55;102475.72;5066518;27;20432;-71
2022/03/20 00:12:30;;;;;;;20.15;14.90;;;;;;;5.91;47.29;102459.91;5071390;27;20260;-72
2022/03/20 00:14:56;;;;;;;18.73;15.10;;;;;;;5.90;46.63;102463.44;5060076;27;20525;-71
2022/03/20 00:17:21;;;;;;;22.02;15.65;;;;;;;5.68;46.91;102456.44;5037572;27;20021;-71
2022/03/20 00:19:47;;;;;;;17.48;15.57;;;;;;;5.68;46.81;102448.56;5051144;27;20056;-71
2022/03/20 00:22:13;;;;;;;18.23;15.25;;;;;;;5.62;46.80;102448.78;5040669;27;20023;-71
2022/03/20 00:24:41;;;;;;;18.05;15.07;;;;;;;5.61;46.95;102443.59;5008817;27;20909;-71
2022/03/20 00:27:08;;;;;;;18.60;15.35;;;;;;;5.62;46.73;102440.06;5014984;27;20036;-70
2022/03/20 00:29:33;;;;;;;18.50;15.10;;;;;;;5.71;46.34;102442.34;5032177;27;20025;-71
2022/03/20 00:31:58;;;;;;;19.35;15.07;;;;;;;5.63;46.66;102432.13;5034937;27;20538;-70
2022/03/20 00:34:24;;;;;;;18.73;14.60;;;;;;;5.68;45.96;102427.56;5036427;27;20017;-71
2022/03/20 00:36:49;;;;;;;18.15;16.15;;;;;;;5.64;46.27;102430.34;5030403;27;20410;-70
2022/03/20 00:39:14;;;;;;;20.98;15.27;;;;;;;5.77;46.22;102417.59;5014905;27;20026;-70
2022/03/20 00:41:40;;;;;;;17.25;14.55;;;;;;;5.66;45.78;102418.88;4997168;27;20033;-70
2022/03/20 00:44:05;;;;;;;19.90;14.65;;;;;;;5.58;46.14;102422.72;5015994;27;20028;-70
2022/03/20 00:46:31;;;;;;;17.45;14.90;;;;;;;5.41;45.76;102416.38;5034491;27;20028;-70
2022/03/20 00:48:56;;;;;;;20.60;15.13;;;;;;;5.48;46.37;102415.22;5032765;27;20170;-70
2022/03/20 00:51:21;;;;;;;17.63;14.50;;;;;;;5.59;45.53;102416.56;5032267;27;20023;-70
2022/03/20 00:53:47;;;;;;;19.42;14.88;;;;;;;5.63;45.53;102410.28;5020764;27;20013;-70
2022/03/20 00:56:15;;;;;;;18.83;15.13;;;;;;;5.61;45.42;102394.59;5011087;27;20029;-70
2022/03/20 00:58:41;;;;;;;19.95;14.93;;;;;;;5.65;45.33;102409.31;5030653;27;20020;-71
2022/03/20 01:01:10;;;;;;;17.73;14.63;;;;;;;5.60;45.18;102399.91;5031068;27;20040;-72
2022/03/20 01:03:35;;;;;;;18.00;14.57;;;;;;;5.65;45.64;102397.94;5013744;27;20317;-70
2022/03/20 01:06:01;;;;;;;17.30;14.32;;;;;;;5.62;45.23;102390.19;5032705;27;21618;-71
2022/03/20 01:08:26;;;;;;;19.05;15.32;;;;;;;5.54;44.81;102381.75;5031247;27;20498;-71
2022/03/20 01:10:52;;;;;;;18.77;14.23;;;;;;;5.42;44.94;102376.09;5012577;27;20013;-70
2022/03/20 01:13:18;;;;;;;18.90;15.48;;;;;;;5.36;45.43;102372.84;5013470;27;20340;-70
2022/03/20 01:15:43;;;;;;;17.90;14.48;;;;;;;5.47;45.78;102365.41;5033950;27;20005;-70
2022/03/20 01:18:09;;;;;;;18.02;14.27;;;;;;;5.44;45.08;102361.16;5014122;27;20539;-70
2022/03/20 01:20:34;;;;;;;15.48;13.73;;;;;;;5.41;44.50;102355.16;5028382;27;20037;-71
2022/03/20 01:23:00;;;;;;;17.45;14.82;;;;;;;5.50;45.32;102365.28;5013020;27;20020;-70
2022/03/20 01:25:25;;;;;;;17.48;14.45;;;;;;;5.44;44.54;102352.41;5025267;27;20128;-70
2022/03/20 01:27:50;;;;;;;19.40;14.85;;;;;;;5.42;44.96;102346.38;5029736;27;20305;-70
2022/03/20 01:30:16;;;;;;;19.17;15.00;;;;;;;5.41;44.75;102344.66;5014173;27;20482;-70
2022/03/20 01:32:41;;;;;;;17.33;14.68;;;;;;;5.59;45.03;102343.88;5031242;27;20021;-71
2022/03/20 01:35:09;;;;;;;17.73;14.88;;;;;;;5.65;44.47;102334.88;5038919;27;20546;-70
2022/03/20 01:37:35;;;;;;;17.02;14.35;;;;;;;5.47;44.17;102345.25;5031840;27;20087;-71
2022/03/20 01:40:00;;;;;;;20.70;14.80;;;;;;;5.45;44.67;102333.97;5012762;27;20098;-70
2022/03/20 01:42:26;;;;;;;17.33;14.82;;;;;;;5.58;43.58;102342.16;5032660;27;20882;-70
2022/03/20 01:44:52;;;;;;;17.42;14.50;;;;;;;5.51;44.17;102327.59;5030668;27;20017;-70
2022/03/20 01:47:17;;;;;;;23.13;14.90;;;;;;;5.52;44.22;102325.84;4994543;27;20769;-70
2022/03/20 01:49:42;;;;;;;19.60;14.88;;;;;;;5.57;42.97;102323.84;5011709;27;20032;-70
2022/03/20 01:52:10;;;;;;;19.70;14.52;;;;;;;5.37;44.14;102325.53;5011028;27;20082;-70
2022/03/20 01:54:42;;;;;;;17.20;14.32;;;;;;;5.35;44.25;102322.13;5026383;27;19997;-70
2022/03/20 01:57:09;;;;;;;20.92;14.30;;;;;;;5.42;44.80;102317.50;5016955;27;20075;-70
2022/03/20 01:59:36;;;;;;;19.13;15.57;;;;;;;5.42;44.51;102317.50;5013415;27;20124;-70
2022/03/20 02:02:03;;;;;;;19.38;14.60;;;;;;;5.40;43.80;102308.81;5014765;28;20013;-70
2022/03/20 02:04:28;;;;;;;17.70;14.68;;;;;;;5.36;44.32;102320.34;5031440;28;20144;-70
2022/03/20 02:06:54;;;;;;;21.13;14.57;;;;;;;5.44;43.53;102315.66;5014033;28;20216;-70
2022/03/20 02:09:19;;;;;;;18.85;14.15;;;;;;;5.45;44.10;102305.06;5031998;28;20495;-70
2022/03/20 02:11:45;;;;;;;19.55;15.18;;;;;;;5.43;43.37;102295.56;5016332;28;20013;-70
2022/03/20 02:14:10;;;;;;;18.63;14.20;;;;;;;5.52;43.68;102291.72;5014193;28;20124;-71
2022/03/20 02:16:35;;;;;;;18.45;14.20;;;;;;;5.66;42.81;102298.06;5014126;28;20001;-70
2022/03/20 02:19:04;;;;;;;19.50;14.88;;;;;;;5.71;43.15;102290.00;5017334;28;20240;-70
2022/03/20 02:21:43;;;;;;;16.88;13.77;;;;;;;5.67;43.22;102293.69;5032555;27;20847;-70
2022/03/20 02:24:28;;;;;;;17.88;14.98;;;;;;;5.73;43.84;102282.88;4991007;28;20603;-70
2022/03/20 02:27:06;;;;;;;18.65;14.48;;;;;;;5.73;44.18;102282.88;5014130;28;20969;-70
2022/03/20 02:29:31;;;;;;;18.13;14.25;;;;;;;5.73;44.17;102271.53;5016057;28;20020;-70
2022/03/20 02:31:59;;;;;;;17.80;15.23;;;;;;;5.66;44.02;102278.81;5001690;28;20056;-70
2022/03/20 02:34:26;;;;;;;20.25;14.68;;;;;;;5.65;44.49;102279.75;5037319;28;20024;-69
2022/03/20 02:36:52;;;;;;;16.80;14.50;;;;;;;5.63;44.76;102263.22;5017754;28;20036;-70
2022/03/20 02:39:17;;;;;;;18.48;14.85;;;;;;;5.64;43.85;102264.91;5019763;28;20180;-69
2022/03/20 02:41:42;;;;;;;16.23;13.73;;;;;;;5.74;44.25;102254.84;5018721;28;20023;-70
2022/03/20 02:44:08;;;;;;;20.92;14.57;;;;;;;5.67;44.47;102262.16;5022869;27;20529;-70
2022/03/20 02:46:37;;;;;;;18.40;14.15;;;;;;;5.67;44.38;102251.66;5038065;27;20013;-70
2022/03/20 02:49:03;;;;;;;17.75;14.50;;;;;;;5.74;44.49;102242.56;5026318;27;20029;-70
2022/03/20 02:51:29;;;;;;;18.05;14.18;;;;;;;5.87;44.23;102242.88;5009264;27;20559;-72
2022/03/20 02:53:55;;;;;;;19.48;14.55;;;;;;;5.83;44.47;102244.78;5032449;27;20835;-70
2022/03/20 02:56:21;;;;;;;17.02;14.32;;;;;;;5.77;43.95;102237.19;5028772;27;20032;-70
2022/03/20 02:58:48;;;;;;;16.90;15.07;;;;;;;5.75;43.54;102241.63;5046558;27;20255;-70
2022/03/20 03:01:15;;;;;;;22.25;15.00;;;;;;;5.74;43.63;102237.31;5044126;27;20052;-70
2022/03/20 03:03:45;;;;;;;18.92;14.90;;;;;;;5.78;43.07;102236.28;5044276;27;20072;-70
2022/03/20 03:06:11;;;;;;;18.15;14.82;;;;;;;5.80;43.80;102233.56;5052371;27;20025;-70
2022/03/20 03:11:20;;;;;;;17.65;15.05;;;;;;;5.79;44.02;102221.34;5047562;27;20346;-70
2022/03/20 03:13:47;;;;;;;19.58;15.45;;;;;;;5.79;43.79;102227.44;5031886;27;20017;-70
2022/03/20 03:16:14;;;;;;;19.20;15.45;;;;;;;5.82;43.49;102211.56;5048785;27;20600;-70
2022/03/20 03:18:41;;;;;;;21.95;15.43;;;;;;;5.71;43.63;102211.19;5056987;27;20068;-70
2022/03/20 03:21:09;;;;;;;18.60;15.20;;;;;;;5.73;43.90;102209.34;5073358;27;20020;-70
2022/03/20 03:23:36;;;;;;;20.80;16.25;;;;;;;5.74;43.11;102202.31;5039732;27;20008;-70
2022/03/20 03:26:02;;;;;;;17.98;15.63;;;;;;;5.70;42.64;102204.22;5037192;27;20128;-70
2022/03/20 03:28:34;;;;;;;18.27;14.88;;;;;;;5.65;43.98;102198.31;5031718;27;20201;-70
2022/03/20 03:31:00;;;;;;;19.50;15.57;;;;;;;5.66;43.90;102192.16;5015430;27;20228;-70
2022/03/20 03:33:25;;;;;;;18.60;15.40;;;;;;;5.73;43.55;102204.09;4982602;27;20183;-70
2022/03/20 03:35:54;;;;;;;20.25;16.35;;;;;;;5.77;44.05;102200.41;5014185;27;20334;-70
2022/03/20 03:38:30;;;;;;;21.05;16.02;;;;;;;5.69;43.09;102197.28;5032490;27;20002;-69
2022/03/20 03:40:56;;;;;;;19.98;16.38;;;;;;;5.62;43.18;102195.84;5031982;27;20168;-72
2022/03/20 03:43:21;;;;;;;21.02;16.42;;;;;;;5.67;43.48;102183.38;5004427;27;20017;-71
2022/03/20 03:45:47;;;;;;;21.25;16.38;;;;;;;5.70;43.49;102164.84;4996746;27;20020;-70
2022/03/20 03:48:12;;;;;;;20.88;16.13;;;;;;;5.62;43.24;102174.84;5014391;27;20021;-70
2022/03/20 03:50:38;;;;;;;20.70;16.67;;;;;;;5.64;43.61;102175.59;5032169;27;20806;-70
2022/03/20 03:53:04;;;;;;;21.77;16.52;;;;;;;5.62;43.27;102180.09;5012967;27;20262;-70
2022/03/20 03:55:31;;;;;;;19.35;15.60;;;;;;;5.62;42.55;102173.06;4996065;27;20196;-70
2022/03/20 03:57:56;;;;;;;21.17;17.67;;;;;;;5.63;43.29;102169.50;5030776;27;20124;-70
2022/03/20 04:00:21;;;;;;;19.13;16.27;;;;;;;5.66;42.72;102166.75;5032303;27;20943;-69
2022/03/20 04:02:47;;;;;;;20.33;17.27;;;;;;;5.61;42.75;102157.38;5033279;27;20499;-70
2022/03/20 04:05:17;;;;;;;20.52;16.90;;;;;;;5.55;43.14;102162.91;5016721;27;20013;-70
2022/03/20 04:07:46;;;;;;;22.25;16.92;;;;;;;5.54;43.10;102156.78;5029771;27;20780;-70
2022/03/20 04:10:11;;;;;;;20.95;17.25;;;;;;;5.50;43.02;102161.34;5013927;27;20342;-70
2022/03/20 04:12:37;;;;;;;24.88;17.13;;;;;;;5.47;43.36;102150.97;5030640;27;20009;-70
2022/03/20 04:15:07;;;;;;;18.52;16.27;;;;;;;5.49;42.60;102154.38;4995546;27;20029;-70
2022/03/20 04:17:32;;;;;;;24.77;17.75;;;;;;;5.45;43.20;102147.56;5030212;27;19997;-70
2022/03/20 04:19:58;;;;;;;22.10;17.75;;;;;;;5.50;42.87;102152.63;4994825;28;20494;-70
2022/03/20 04:22:24;;;;;;;21.73;16.77;;;;;;;5.42;43.47;102145.06;5018774;27;20241;-71
2022/03/20 04:24:50;;;;;;;20.58;17.75;;;;;;;5.41;42.97;102150.41;5007221;27;20087;-70
2022/03/20 04:27:16;;;;;;;22.85;16.52;;;;;;;5.37;43.09;102144.41;5030900;27;20017;-70
2022/03/20 04:29:41;;;;;;;23.95;17.55;;;;;;;5.28;43.02;102139.59;5029998;27;20020;-70
2022/03/20 04:32:08;;;;;;;25.90;16.92;;;;;;;5.22;43.82;102135.47;4995186;27;20865;-70
2022/03/20 04:34:34;;;;;;;20.67;17.05;;;;;;;5.35;43.32;102127.06;5012768;27;20083;-70
2022/03/20 04:37:04;;;;;;;21.52;17.05;;;;;;;5.24;43.00;102130.16;5032876;27;20092;-69
2022/03/20 04:39:30;;;;;;;23.27;17.23;;;;;;;5.29;43.58;102123.78;5028488;27;20059;-70
2022/03/20 04:41:55;;;;;;;22.42;17.67;;;;;;;5.33;43.09;102121.88;5012010;27;20037;-70
2022/03/20 04:44:21;;;;;;;24.75;17.83;;;;;;;5.29;43.03;102126.41;5021953;27;20241;-70
2022/03/20 04:46:46;;;;;;;22.63;17.52;;;;;;;5.29;43.56;102125.56;5030843;27;20028;-70
2022/03/20 05:00:08;;;;;;;21.40;17.60;;;;;;;5.09;43.88;102098.41;5028979;27;20100;-70
2022/03/20 05:02:33;;;;;;;24.52;17.63;;;;;;;5.12;44.13;102098.28;5026933;27;20029;-70
2022/03/20 05:04:59;;;;;;;24.83;18.20;;;;;;;5.11;43.91;102098.34;5010747;27;20047;-70
2022/03/20 05:07:24;;;;;;;23.05;18.17;;;;;;;5.06;44.17;102102.94;4996165;27;20335;-71
2022/03/20 05:15:18;;;;;;;23.35;18.63;;;;;;;5.19;44.28;102098.00;5031900;27;20129;-70
2022/03/20 05:17:43;;;;;;;24.08;18.52;;;;;;;5.15;44.67;102090.25;5034922;27;20028;-70
2022/03/20 05:20:10;;;;;;;23.50;18.50;;;;;;;5.12;44.59;102094.81;5032290;27;20052;-70
2022/03/20 05:22:39;;;;;;;23.92;18.60;;;;;;;5.22;44.15;102095.22;5031882;27;20021;-70
2022/03/20 05:25:09;;;;;;;22.08;18.70;;;;;;;5.19;44.13;102082.25;5006587;27;20930;-70
2022/03/20 05:27:34;;;;;;;22.05;18.38;;;;;;;5.17;44.50;102074.44;5030643;27;20024;-70
2022/03/20 05:30:00;;;;;;;23.50;19.20;;;;;;;5.18;44.32;102076.16;5030134;27;20017;-70
2022/03/20 05:32:25;;;;;;;23.70;18.50;;;;;;;5.22;44.48;102063.75;5030576;27;20504;-70
2022/03/20 05:34:51;;;;;;;24.83;19.15;;;;;;;5.29;44.78;102062.56;5028768;27;20029;-70
2022/03/20 05:37:16;;;;;;;21.60;18.33;;;;;;;5.39;44.15;102069.09;4997611;27;20029;-70
2022/03/20 05:39:41;;;;;;;23.08;18.60;;;;;;;5.41;44.05;102085.59;5012903;27;20021;-69
2022/03/20 05:42:07;;;;;;;25.00;19.45;;;;;;;5.37;44.40;102091.91;5028311;27;20769;-69
2022/03/20 05:44:35;;;;;;;24.65;19.55;;;;;;;5.41;44.49;102090.84;5030435;27;20024;-70
2022/03/20 05:47:00;;;;;;;25.70;19.35;;;;;;;5.37;44.22;102091.06;5013732;27;20813;-70
2022/03/20 05:49:26;;;;;;;22.60;18.88;;;;;;;5.46;43.90;102091.50;5011606;27;20017;-70
2022/03/20 05:51:52;;;;;;;26.20;19.38;;;;;;;5.50;44.55;102087.81;5011867;28;20911;-70
2022/03/20 05:54:17;;;;;;;26.35;19.45;;;;;;;5.60;44.31;102092.66;5006928;27;20021;-70
2022/03/20 05:59:27;;;;;;;22.63;18.70;;;;;;;5.59;44.62;102098.81;5011673;27;20089;-70
2022/03/20 06:01:52;;;;;;;22.70;18.73;;;;;;;5.65;44.18;102091.53;5008131;27;20028;-72
2022/03/20 06:04:21;;;;;;;22.65;18.10;;;;;;;5.73;44.51;102099.03;5013302;27;20021;-72
2022/03/20 06:06:48;;;;;;;24.90;19.05;;;;;;;5.75;44.49;102107.69;5029561;27;20029;-72
2022/03/20 06:09:13;;;;;;;23.45;18.92;;;;;;;5.75;44.27;102112.94;5029514;28;20009;-72
2022/03/20 06:11:38;;;;;;;22.30;19.27;;;;;;;5.74;44.02;102111.25;5013119;27;20016;-72
2022/03/20 06:14:04;;;;;;;24.95;19.17;;;;;;;5.77;43.94;102116.34;5031589;28;20025;-72
2022/03/20 06:16:30;;;;;;;25.58;19.55;;;;;;;5.83;43.55;102113.44;5029204;27;20020;-71
2022/03/20 06:18:56;;;;;;;25.30;19.42;;;;;;;5.84;42.97;102112.50;5028179;28;20093;-72
2022/03/20 06:21:22;;;;;;;24.85;18.92;;;;;;;5.84;44.04;102112.50;5015496;27;20140;-72
2022/03/20 06:23:48;;;;;;;23.98;19.65;;;;;;;5.90;43.79;102115.78;5024316;27;20061;-71
2022/03/20 06:26:14;;;;;;;24.90;18.92;;;;;;;5.98;44.06;102113.69;5033000;27;20867;-71
2022/03/20 06:28:40;;;;;;;22.73;19.05;;;;;;;6.00;43.85;102117.91;5031939;27;20452;-72
2022/03/20 06:31:10;;;;;;;25.65;19.85;;;;;;;6.04;43.76;102120.41;5014674;27;20021;-72
2022/03/20 06:33:36;;;;;;;26.48;19.55;;;;;;;6.03;43.73;102111.66;5016468;27;20044;-71
2022/03/20 06:36:02;;;;;;;24.58;20.00;;;;;;;6.08;43.78;102114.94;4997723;27;20016;-71
2022/03/20 06:38:27;;;;;;;27.05;20.58;;;;;;;6.14;44.38;102103.28;5031533;27;20020;-71
2022/03/20 06:40:52;;;;;;;24.65;19.58;;;;;;;6.18;44.24;102110.09;5014530;27;20044;-71
2022/03/20 06:43:18;;;;;;;26.05;19.85;;;;;;;6.24;43.57;102103.69;5032582;27;20085;-71
2022/03/20 06:45:43;;;;;;;26.67;19.95;;;;;;;6.14;43.93;102093.59;5032908;27;20940;-72
2022/03/20 06:48:09;;;;;;;26.17;19.92;;;;;;;6.18;43.36;102100.41;5023716;27;20530;-72
2022/03/20 06:50:34;;;;;;;27.13;19.70;;;;;;;6.14;44.00;102098.03;5031205;27;20036;-72
2022/03/20 06:53:04;;;;;;;24.17;19.88;;;;;;;6.13;43.28;102102.41;5024741;27;20098;-71
2022/03/20 06:55:30;;;;;;;25.25;20.13;;;;;;;6.07;43.65;102086.94;4990597;27;20784;-71
2022/03/20 06:57:56;;;;;;;22.77;19.40;;;;;;;6.08;43.15;102088.66;5016759;27;20036;-71
2022/03/20 07:00:21;;;;;;;25.33;19.50;;;;;;;6.10;43.61;102071.03;5036212;27;20928;-71
2022/03/20 07:02:47;;;;;;;27.23;20.10;;;;;;;6.17;43.56;102066.31;5033328;27;20240;-72
2022/03/20 07:05:12;;;;;;;24.30;20.05;;;;;;;6.17;43.89;102055.81;5014500;27;20521;-71
2022/03/20 07:07:40;;;;;;;26.67;20.33;;;;;;;6.23;44.11;102049.41;5033090;27;20044;-74
2022/03/20 07:10:06;;;;;;;23.98;19.70;;;;;;;6.21;44.36;102059.16;5035779;27;20024;-71
2022/03/20 07:12:31;;;;;;;28.80;21.20;;;;;;;6.30;43.32;102056.06;5033824;27;20511;-71
2022/03/20 07:14:57;;;;;;;28.17;19.88;;;;;;;6.29;43.99;102059.59;5015963;27;20085;-71
2022/03/20 07:17:22;;;;;;;26.40;20.80;;;;;;;6.38;44.14;102056.53;5032681;27;20043;-71
2022/03/20 07:19:48;;;;;;;24.67;20.10;;;;;;;6.42;43.62;102051.97;5033125;27;20033;-71
2022/03/20 07:22:14;;;;;;;31.48;21.52;;;;;;;6.35;43.37;102048.78;5033182;27;20235;-73
2022/03/20 07:24:41;;;;;;;30.17;21.67;;;;;;;6.46;43.32;102041.22;5031393;27;20562;-71
2022/03/20 07:29:51;;;;;;;25.30;20.60;;;;;;;6.50;43.44;102018.22;5013758;27;20024;-72
2022/03/20 07:32:16;;;;;;;27.33;20.52;;;;;;;6.49;43.83;102027.91;5013544;27;20332;-71
2022/03/20 07:34:44;;;;;;;25.25;20.40;;;;;;;6.53;43.94;102036.50;5012250;28;20190;-71
2022/03/20 07:37:09;;;;;;;25.33;20.92;;;;;;;6.66;43.81;102037.56;4995728;28;20001;-72
2022/03/20 07:39:35;;;;;;;26.77;20.73;;;;;;;6.64;42.96;102028.03;5012961;28;20026;-72
2022/03/20 07:42:00;;;;;;;26.58;20.70;;;;;;;6.67;42.70;102030.50;5009873;28;20033;-71
2022/03/20 07:44:25;;;;;;;27.10;20.80;;;;;;;6.67;43.13;102022.59;5010586;28;20223;-73
2022/03/20 07:46:53;;;;;;;24.35;20.33;;;;;;;6.73;43.33;102011.78;5011847;28;20025;-71
2022/03/20 07:49:21;;;;;;;25.00;20.50;;;;;;;6.90;43.03;102025.84;4994700;28;20021;-71
2022/03/20 07:51:47;;;;;;;27.67;21.02;;;;;;;6.94;43.45;102014.19;5016896;27;20017;-73
2022/03/20 07:54:13;;;;;;;25.48;20.65;;;;;;;6.97;43.15;102012.25;5004645;27;20069;-72
2022/03/20 07:56:39;;;;;;;27.17;21.00;;;;;;;6.99;43.05;102012.19;5016894;27;20029;-72
2022/03/20 07:59:05;;;;;;;27.20;21.55;;;;;;;7.01;43.21;102005.91;5017222;27;20089;-72
2022/03/20 08:01:34;;;;;;;26.27;21.45;;;;;;;6.96;43.44;101996.56;5031696;27;20563;-73
2022/03/20 08:04:00;;;;;;;26.05;21.20;;;;;;;7.05;43.28;101991.66;5032966;27;20045;-73
2022/03/20 08:06:26;;;;;;;28.05;21.88;;;;;;;7.19;43.46;101985.63;5031609;27;20113;-73
2022/03/20 08:08:52;;;;;;;25.15;21.00;;;;;;;7.24;43.10;101972.22;5015212;27;20029;-72
2022/03/20 08:11:18;;;;;;;26.63;20.73;;;;;;;7.22;43.47;101977.56;5029804;27;20005;-72
2022/03/20 08:13:44;;;;;;;28.55;21.55;;;;;;;7.36;42.49;101974.19;5038055;27;20977;-71
2022/03/20 08:16:12;;;;;;;27.17;21.35;;;;;;;7.42;42.85;101974.75;5035040;27;20035;-72
2022/03/20 08:18:37;;;;;;;25.02;21.00;;;;;;;7.46;42.00;101979.78;5031391;27;20178;-73
2022/03/20 08:21:03;;;;;;;28.75;22.13;;;;;;;7.64;42.79;101967.38;5036033;27;20024;-73
2022/03/20 08:23:28;;;;;;;25.77;21.42;;;;;;;7.73;41.97;101973.88;5033450;27;20021;-72
2022/03/20 08:25:54;;;;;;;26.45;21.75;;;;;;;7.80;41.45;101985.75;5029347;27;20559;-73
2022/03/20 08:28:19;;;;;;;28.52;21.90;;;;;;;7.97;41.67;102003.25;5014010;27;20255;-72
2022/03/20 08:30:44;;;;;;;26.05;20.65;;;;;;;7.96;41.60;102019.97;5030108;27;20020;-73
2022/03/20 08:33:10;;;;;;;25.95;21.55;;;;;;;7.75;41.58;102027.34;5014360;27;20051;-73
2022/03/20 08:35:35;;;;;;;25.58;21.35;;;;;;;7.84;42.40;102018.91;5030752;27;20908;-72
2022/03/20 08:38:03;;;;;;;26.52;21.45;;;;;;;8.11;42.04;102013.00;5033418;27;20376;-74
2022/03/20 08:40:28;;;;;;;26.05;21.92;;;;;;;8.17;41.09;102009.97;5012222;27;20024;-73
2022/03/20 08:42:55;;;;;;;26.80;21.52;;;;;;;8.39;41.82;102017.50;5025991;27;20106;-72
2022/03/20 08:45:21;;;;;;;30.15;22.23;;;;;;;8.57;41.74;102023.50;5019589;27;20010;-75
2022/03/20 08:47:46;;;;;;;27.83;21.48;;;;;;;8.68;40.69;102017.53;5014420;27;20028;-72
2022/03/20 08:50:13;;;;;;;25.48;21.50;;;;;;;8.47;40.25;102008.28;5015044;27;20033;-73
2022/03/20 08:52:38;;;;;;;25.80;21.23;;;;;;;8.36;40.75;102009.75;5032698;27;20784;-72
2022/03/20 08:55:09;;;;;;;29.30;21.92;;;;;;;8.35;41.21;102002.78;5019548;27;20025;-73
2022/03/20 08:57:37;;;;;;;26.95;21.15;;;;;;;8.44;41.45;102004.00;5013716;27;20394;-73
2022/03/20 09:00:03;;;;;;;26.48;21.83;;;;;;;8.48;41.14;102020.56;5003457;27;20029;-72
2022/03/20 09:02:28;;;;;;;26.08;21.98;;;;;;;8.37;40.83;102007.97;4993027;27;20283;-71
2022/03/20 09:04:59;;;;;;;27.85;21.48;;;;;;;8.35;41.20;102008.06;5092708;27;20178;-71
2022/03/20 09:07:24;;;;;;;27.02;21.85;;;;;;;8.43;41.99;102002.31;5012044;28;20014;-74
2022/03/20 09:09:49;;;;;;;28.75;22.15;;;;;;;8.40;41.82;101997.22;5023685;28;20018;-72
2022/03/20 09:12:15;;;;;;;25.00;21.20;;;;;;;8.54;42.14;102004.34;4985642;28;20457;-75
2022/03/20 09:14:40;;;;;;;27.63;22.35;;;;;;;8.65;42.40;102001.06;4985577;28;20121;-75
2022/03/20 09:19:54;;;;;;;29.08;23.15;;;;;;;8.50;42.05;101992.28;4991840;28;20090;-73
2022/03/20 09:22:20;;;;;;;27.42;23.08;;;;;;;8.55;42.08;101988.41;4979586;28;21132;-73
2022/03/20 09:24:45;;;;;;;26.67;21.85;;;;;;;8.66;41.64;101989.53;4976189;28;20037;-74
2022/03/20 09:27:11;;;;;;;26.15;22.80;;;;;;;8.69;41.33;101986.75;5001356;28;20026;-72
2022/03/20 09:29:36;;;;;;;27.42;23.27;;;;;;;8.71;41.79;101995.41;4973697;28;20024;-72
2022/03/20 09:32:02;;;;;;;26.92;22.45;;;;;;;8.68;41.91;101992.97;4956290;28;20905;-73
2022/03/20 09:34:31;;;;;;;27.77;22.83;;;;;;;8.71;42.81;101969.84;4959278;28;20014;-73
2022/03/20 09:36:56;;;;;;;26.25;22.50;;;;;;;8.82;41.69;101977.13;4968829;28;20448;-73
2022/03/20 09:39:22;;;;;;;28.52;22.65;;;;;;;8.86;42.27;101983.91;4987477;28;20540;-73
2022/03/20 09:41:47;;;;;;;25.48;22.08;;;;;;;9.00;41.80;101979.56;4964634;28;20026;-73
2022/03/20 09:44:15;;;;;;;28.63;23.02;;;;;;;9.18;41.34;101975.78;4992989;28;20119;-72
2022/03/20 09:46:40;;;;;;;27.63;22.63;;;;;;;9.44;41.31;101971.44;4975260;28;20200;-74
2022/03/20 09:49:08;;;;;;;27.92;23.08;;;;;;;9.63;41.20;101960.53;4963893;28;20163;-74
2022/03/20 09:51:34;;;;;;;25.85;22.58;;;;;;;10.00;41.31;101964.31;4970893;28;20036;-74
2022/03/20 09:54:00;;;;;;;26.02;22.70;;;;;;;10.36;40.19;101958.34;4970353;28;20129;-73
2022/03/20 09:56:25;;;;;;;27.55;23.33;;;;;;;10.59;38.39;101970.03;4954504;28;20006;-73
2022/03/20 09:58:50;;;;;;;26.25;22.95;;;;;;;10.73;37.78;101973.50;4980811;28;20074;-72
2022/03/20 10:01:16;;;;;;;26.85;22.17;;;;;;;11.28;38.02;101971.34;4987251;28;20014;-75
2022/03/20 10:03:42;;;;;;;26.88;22.98;;;;;;;10.86;37.89;101965.53;4989431;28;20773;-75
2022/03/20 10:06:09;;;;;;;25.27;22.52;;;;;;;10.61;38.85;101964.63;4986200;28;20023;-73
2022/03/20 10:08:35;;;;;;;28.58;23.33;;;;;;;10.52;39.43;101974.06;4986931;28;20024;-74
2022/03/20 10:11:16;;;;;;;26.67;23.13;;;;;;;10.56;39.58;101972.88;4970311;28;20193;-74
2022/03/20 10:14:16;;;;;;;29.67;23.05;;;;;;;10.95;39.31;101963.06;4988113;28;20056;-72
2022/03/20 10:16:43;;;;;;;28.33;23.40;;;;;;;11.52;37.89;101966.09;4973481;28;20123;-74
2022/03/20 10:19:35;;;;;;;25.85;23.05;;;;;;;11.47;37.98;101960.28;4958989;28;20267;-74
2022/03/20 10:22:06;;;;;;;27.20;23.20;;;;;;;11.93;37.21;101953.34;4971242;28;20013;-74
2022/03/20 10:24:32;;;;;;;25.98;22.40;;;;;;;12.13;36.94;101947.41;4963757;28;20025;-73
2022/03/20 10:27:01;;;;;;;26.92;22.80;;;;;;;12.59;35.41;101950.94;4976168;28;20007;-74
2022/03/20 10:29:30;;;;;;;26.38;22.58;;;;;;;13.09;34.36;101963.03;4975880;28;20017;-74
2022/03/20 10:31:56;;;;;;;28.05;23.15;;;;;;;12.96;34.99;101945.41;4967303;28;20242;-74
2022/03/20 10:34:23;;;;;;;25.23;21.95;;;;;;;13.84;34.19;101942.72;4973736;28;20026;-73
2022/03/20 10:36:49;;;;;;;25.00;22.30;;;;;;;14.00;33.99;101944.94;4962185;28;20088;-73
2022/03/20 10:39:16;;;;;;;25.67;21.65;;;;;;;14.17;34.04;101940.84;4954886;28;20014;-74
2022/03/20 10:41:43;;;;;;;27.80;23.02;;;;;;;14.59;33.11;101938.13;4972944;28;20109;-74
2022/03/20 10:44:16;;;;;;;26.45;22.40;;;;;;;15.28;31.97;101934.72;4965100;28;20797;-73
2022/03/20 10:46:42;;;;;;;25.77;22.17;;;;;;;14.75;31.79;101937.66;4956092;28;20079;-72
2022/03/20 10:49:07;;;;;;;25.05;22.35;;;;;;;14.32;32.23;101944.84;4972402;28;20014;-75
2022/03/20 10:51:39;;;;;;;25.65;22.95;;;;;;;14.08;32.89;101948.63;4950761;28;20925;-73
2022/03/20 10:54:11;;;;;;;25.90;23.13;;;;;;;14.04;34.72;101949.84;4957743;28;20015;-74
2022/03/20 10:56:37;;;;;;;25.13;22.05;;;;;;;14.04;33.12;101955.19;4987235;28;20799;-72
2022/03/20 10:59:13;;;;;;;25.65;22.90;;;;;;;14.78;31.65;101958.72;4976499;28;20025;-73
2022/03/20 11:01:39;;;;;;;27.15;21.90;;;;;;;14.64;32.35;101961.72;4971879;28;20421;-74
2022/03/20 11:04:08;;;;;;;24.67;22.00;;;;;;;14.25;33.23;101947.19;4958447;28;20042;-74
2022/03/20 11:06:34;;;;;;;24.35;21.75;;;;;;;14.53;33.58;101946.66;4974947;28;19998;-74
2022/03/20 11:09:02;;;;;;;26.50;23.20;;;;;;;15.21;32.91;101943.38;4958348;28;20350;-72
2022/03/20 11:11:27;;;;;;;26.83;22.23;;;;;;;15.79;30.82;101948.78;4975122;28;20114;-72
2022/03/20 11:13:53;;;;;;;25.67;22.40;;;;;;;15.17;31.99;101947.31;4954884;28;20394;-73
2022/03/20 11:16:20;;;;;;;26.75;23.00;;;;;;;15.11;32.23;101964.69;4974520;28;20048;-73
2022/03/20 11:18:45;;;;;;;24.35;21.77;;;;;;;14.90;32.14;101967.44;4940084;28;20114;-72
2022/03/20 11:21:11;;;;;;;24.80;22.17;;;;;;;14.29;33.88;101971.75;4955449;28;20026;-74
2022/03/20 11:23:36;;;;;;;25.80;22.55;;;;;;;14.18;34.02;101954.03;4957903;28;20111;-71
2022/03/20 11:26:02;;;;;;;25.33;22.67;;;;;;;13.99;34.50;101957.41;4954600;28;20309;-73
2022/03/20 11:28:28;;;;;;;26.08;23.27;;;;;;;13.82;35.95;101956.16;4973554;28;20053;-73
2022/03/20 11:30:53;;;;;;;26.67;23.05;;;;;;;13.73;35.22;101956.94;4940489;28;20011;-74
2022/03/20 11:33:20;;;;;;;25.15;22.45;;;;;;;13.67;35.63;101952.97;4961921;28;20019;-74
2022/03/20 11:35:45;;;;;;;26.13;23.30;;;;;;;14.21;35.10;101936.94;4957048;28;20087;-74
2022/03/20 11:38:22;;;;;;;29.90;21.98;;;;;;;15.14;33.61;101952.91;4955239;28;20022;-73
2022/03/20 11:41:13;;;;;;;26.25;22.15;;;;;;;14.73;34.16;101928.94;4955759;28;20014;-72